Time;durP1;ratioP1;P1;durP2;ratioP2;P2;SDS_P1;SDS_P2;PMS_P1;PMS_P2;Temp;Humidity;BMP_temperature;BMP_pressure;BME280_temperature;BME280_humidity;BME280_pressure;Samples;Min_cycle;Max_cycle;Signal;HPM_P1;HPM_P2
2022/05/16 00:01:14;;;;;;;3.20;2.10;;;;;;;;;;7334268;19;153540;-20
2022/05/16 00:03:45;;;;;;;2.08;1.98;;;;;;;;;;7334581;19;162451;-19
2022/05/16 00:06:19;;;;;;;3.45;2.70;;;;;;;;;;7331590;19;162396;-19
2022/05/16 00:08:51;;;;;;;3.72;2.45;;;;;;;;;;7332070;19;154248;-18
2022/05/16 00:11:22;;;;;;;2.27;2.13;;;;;;;;;;7332139;19;153710;-18
2022/05/16 00:13:54;;;;;;;4.03;2.72;;;;;;;;;;7335256;19;163801;-19
2022/05/16 00:16:27;;;;;;;4.60;2.42;;;;;;;;;;7335654;19;162371;-21
2022/05/16 00:18:59;;;;;;;3.60;2.35;;;;;;;;;;7330616;19;154159;-19
2022/05/16 00:21:35;;;;;;;2.85;2.60;;;;;;;;;;7334677;19;153582;-19
2022/05/16 00:24:09;;;;;;;3.88;2.80;;;;;;;;;;7331768;19;161935;-29
2022/05/16 00:26:41;;;;;;;2.78;2.55;;;;;;;;;;7331325;19;162560;-17
2022/05/16 00:29:13;;;;;;;3.83;2.33;;;;;;;;;;7332895;19;154157;-17
2022/05/16 00:31:45;;;;;;;3.17;2.70;;;;;;;;;;7329788;19;155156;-17
2022/05/16 00:34:16;;;;;;;2.88;2.53;;;;;;;;;;7329671;19;162053;-18
2022/05/16 00:36:50;;;;;;;2.42;2.15;;;;;;;;;;7330486;19;162420;-17
2022/05/16 00:39:24;;;;;;;2.97;2.67;;;;;;;;;;7330964;19;154397;-17
2022/05/16 00:41:55;;;;;;;2.95;2.75;;;;;;;;;;7329628;19;153645;-17
2022/05/16 00:44:27;;;;;;;2.30;2.10;;;;;;;;;;7330613;19;161858;-18
2022/05/16 00:46:58;;;;;;;2.63;2.42;;;;;;;;;;7328552;19;162415;-18
2022/05/16 00:49:37;;;;;;;2.72;2.53;;;;;;;;;;7331059;19;154114;-18
2022/05/16 00:52:16;;;;;;;2.63;2.40;;;;;;;;;;7329478;19;153623;-18
2022/05/16 00:54:52;;;;;;;2.70;2.47;;;;;;;;;;7330276;19;161958;-18
2022/05/16 00:57:26;;;;;;;2.75;2.45;;;;;;;;;;7330277;19;162514;-18
2022/05/16 01:00:03;;;;;;;2.40;1.98;;;;;;;;;;7329894;19;154210;-19
2022/05/16 01:05:20;;;;;;;2.42;2.22;;;;;;;;;;7330017;19;161873;-18
2022/05/16 01:07:54;;;;;;;2.42;2.22;;;;;;;;;;7334518;19;162347;-18
2022/05/16 01:10:25;;;;;;;2.70;2.50;;;;;;;;;;7330133;19;154081;-18
2022/05/16 01:12:57;;;;;;;3.53;2.50;;;;;;;;;;7329740;19;153637;-18
2022/05/16 01:15:36;;;;;;;2.83;2.60;;;;;;;;;;7333842;19;161834;-19
2022/05/16 01:18:09;;;;;;;2.45;2.28;;;;;;;;;;7329425;19;162388;-19
2022/05/16 01:20:49;;;;;;;;;;;;;;;;;;7329056;19;154117;-19
2022/05/16 01:23:26;;;;;;;2.20;2.10;;;;;;;;;;7330079;19;153438;-20
2022/05/16 01:25:58;;;;;;;2.75;2.55;;;;;;;;;;7332070;19;161901;-18
2022/05/16 01:28:29;;;;;;;2.50;2.30;;;;;;;;;;7333485;19;162490;-20
2022/05/16 01:31:01;;;;;;;2.78;2.42;;;;;;;;;;7329543;19;154182;-19
2022/05/16 01:33:32;;;;;;;2.90;2.15;;;;;;;;;;7329392;19;153662;-19
2022/05/16 01:36:03;;;;;;;2.75;2.55;;;;;;;;;;7331684;19;161814;-19
2022/05/16 01:38:37;;;;;;;2.30;2.10;;;;;;;;;;7329071;19;162444;-24
2022/05/16 01:41:12;;;;;;;2.40;2.20;;;;;;;;;;7327773;19;154066;-19
2022/05/16 01:43:45;;;;;;;2.42;2.22;;;;;;;;;;7328030;19;153926;-18
2022/05/16 01:46:19;;;;;;;3.17;2.35;;;;;;;;;;7326499;19;162084;-19
2022/05/16 01:48:51;;;;;;;2.70;2.03;;;;;;;;;;7327449;19;162362;-19
2022/05/16 01:51:22;;;;;;;2.60;2.33;;;;;;;;;;7329064;19;154369;-18
2022/05/16 01:53:56;;;;;;;2.63;2.00;;;;;;;;;;7328946;19;153512;-18
2022/05/16 01:56:27;;;;;;;2.60;2.40;;;;;;;;;;7328267;19;162212;-18
2022/05/16 01:58:59;;;;;;;2.53;2.20;;;;;;;;;;7328072;19;162261;-18
2022/05/16 02:01:30;;;;;;;2.40;2.20;;;;;;;;;;7326925;19;154067;-18
2022/05/16 02:04:03;;;;;;;2.55;2.35;;;;;;;;;;7328296;19;153582;-18
2022/05/16 02:06:35;;;;;;;2.38;2.08;;;;;;;;;;7328131;19;161724;-18
2022/05/16 02:09:08;;;;;;;3.28;2.58;;;;;;;;;;7328154;19;162437;-18
2022/05/16 02:11:40;;;;;;;2.10;2.00;;;;;;;;;;7328351;19;154202;-18
2022/05/16 02:14:13;;;;;;;2.00;1.90;;;;;;;;;;7327032;19;153758;-19
2022/05/16 02:16:46;;;;;;;2.00;1.90;;;;;;;;;;7327951;19;161836;-18
2022/05/16 02:19:17;;;;;;;2.47;2.28;;;;;;;;;;7326662;19;162539;-18
2022/05/16 02:24:42;;;;;;;2.65;2.45;;;;;;;;;;7327716;19;153981;-18
2022/05/16 02:27:16;;;;;;;2.30;2.20;;;;;;;;;;7327487;19;161828;-18
2022/05/16 02:29:48;;;;;;;2.25;2.13;;;;;;;;;;7327434;19;162328;-18
2022/05/16 02:32:19;;;;;;;2.30;2.10;;;;;;;;;;7327303;19;154045;-18
2022/05/16 02:34:51;;;;;;;2.13;2.03;;;;;;;;;;7327621;19;154000;-18
2022/05/16 02:37:22;;;;;;;2.47;2.28;;;;;;;;;;7327173;19;161861;-18
2022/05/16 02:39:56;;;;;;;2.05;1.90;;;;;;;;;;7327188;19;162412;-18
2022/05/16 02:42:27;;;;;;;2.38;2.17;;;;;;;;;;7325285;19;154177;-18
2022/05/16 02:44:59;;;;;;;2.42;1.92;;;;;;;;;;7326972;19;153588;-18
2022/05/16 02:47:30;;;;;;;2.28;2.08;;;;;;;;;;7330663;19;161815;-18
2022/05/16 02:50:02;;;;;;;2.40;2.20;;;;;;;;;;7333940;19;162597;-19
2022/05/16 02:52:33;;;;;;;2.50;2.20;;;;;;;;;;7334404;19;154528;-19
2022/05/16 02:55:08;;;;;;;2.88;2.20;;;;;;;;;;7334233;19;153730;-18
2022/05/16 02:57:40;;;;;;;2.80;2.60;;;;;;;;;;7333580;19;162161;-18
2022/05/16 03:00:16;;;;;;;2.20;2.10;;;;;;;;;;7333280;19;162513;-19
2022/05/16 03:02:47;;;;;;;2.42;2.22;;;;;;;;;;7331597;19;154048;-19
2022/05/16 03:05:19;;;;;;;2.15;2.05;;;;;;;;;;7333788;19;153449;-19
2022/05/16 03:07:51;;;;;;;2.03;1.92;;;;;;;;;;7333206;19;162453;-18
2022/05/16 03:10:26;;;;;;;2.10;1.90;;;;;;;;;;7333124;19;162386;-18
2022/05/16 03:12:58;;;;;;;2.30;2.10;;;;;;;;;;7333457;19;154063;-18
2022/05/16 03:15:30;;;;;;;2.30;2.05;;;;;;;;;;7332939;19;153689;-18
2022/05/16 03:18:01;;;;;;;2.10;2.00;;;;;;;;;;7335213;19;161961;-18
2022/05/16 03:20:33;;;;;;;2.20;2.10;;;;;;;;;;7332912;19;162562;-19
2022/05/16 03:23:04;;;;;;;2.38;2.13;;;;;;;;;;7331114;19;154348;-18
2022/05/16 03:25:39;;;;;;;2.22;2.10;;;;;;;;;;7336471;19;153578;-18
2022/05/16 03:28:10;;;;;;;1.90;1.80;;;;;;;;;;7335839;19;161918;-18
2022/05/16 03:30:42;;;;;;;2.22;2.03;;;;;;;;;;7332563;19;162404;-19
2022/05/16 03:33:15;;;;;;;1.88;1.77;;;;;;;;;;7333001;19;154391;-18
2022/05/16 03:35:46;;;;;;;3.03;2.50;;;;;;;;;;7331438;19;153518;-18
2022/05/16 03:41:03;;;;;;;2.10;1.90;;;;;;;;;;7335461;19;162298;-19
2022/05/16 03:43:38;;;;;;;2.42;2.22;;;;;;;;;;7329899;19;154062;-18
2022/05/16 03:46:11;;;;;;;2.33;2.13;;;;;;;;;;7335667;19;153710;-18
2022/05/16 03:48:42;;;;;;;2.35;2.15;;;;;;;;;;7330682;19;161946;-19
2022/05/16 03:51:16;;;;;;;1.98;1.88;;;;;;;;;;7331629;19;162376;-19
2022/05/16 03:53:48;;;;;;;2.03;1.92;;;;;;;;;;7332446;19;154167;-19
2022/05/16 03:56:24;;;;;;;2.40;2.20;;;;;;;;;;7332217;19;153819;-20
2022/05/16 03:58:57;;;;;;;2.20;2.00;;;;;;;;;;7329265;19;161882;-20
2022/05/16 04:01:29;;;;;;;2.30;2.10;;;;;;;;;;7331832;19;162360;-19
2022/05/16 04:04:00;;;;;;;;;;;;;;;;;;7332319;19;154207;-19
2022/05/16 04:06:34;;;;;;;2.53;1.98;;;;;;;;;;7331624;19;153416;-19
2022/05/16 04:09:06;;;;;;;2.25;2.15;;;;;;;;;;7334332;19;161773;-19
2022/05/16 04:11:40;;;;;;;2.08;1.88;;;;;;;;;;7334085;19;162674;-19
2022/05/16 04:14:11;;;;;;;2.25;2.10;;;;;;;;;;7335253;19;154037;-19
2022/05/16 04:16:43;;;;;;;2.40;2.20;;;;;;;;;;7334987;19;153584;-19
2022/05/16 04:19:14;;;;;;;2.00;1.90;;;;;;;;;;7334503;19;161889;-18
2022/05/16 04:21:45;;;;;;;2.05;1.77;;;;;;;;;;7333044;19;162662;-19
2022/05/16 04:24:17;;;;;;;1.92;1.77;;;;;;;;;;7334607;19;154097;-21
2022/05/16 04:26:51;;;;;;;2.20;1.95;;;;;;;;;;7334507;19;153484;-19
2022/05/16 04:29:24;;;;;;;2.03;1.80;;;;;;;;;;7334199;19;161886;-18
2022/05/16 04:31:55;;;;;;;2.20;1.70;;;;;;;;;;7333807;19;162435;-19
2022/05/16 04:34:27;;;;;;;2.10;1.90;;;;;;;;;;7333839;19;154755;-19
2022/05/16 04:36:58;;;;;;;2.53;2.08;;;;;;;;;;7333880;19;153495;-19
2022/05/16 04:39:29;;;;;;;2.20;2.10;;;;;;;;;;7333912;19;161799;-19
2022/05/16 04:44:47;;;;;;;2.35;2.15;;;;;;;;;;7334200;19;154092;-19
2022/05/16 04:47:18;;;;;;;1.92;1.83;;;;;;;;;;7332728;19;153629;-18
2022/05/16 04:49:50;;;;;;;2.08;1.75;;;;;;;;;;7334009;19;161766;-17
2022/05/16 04:52:21;;;;;;;2.08;1.85;;;;;;;;;;7333369;19;162722;-18
2022/05/16 04:54:54;;;;;;;1.88;1.77;;;;;;;;;;7334668;19;154063;-19
2022/05/16 04:57:28;;;;;;;2.25;1.60;;;;;;;;;;7333753;19;153441;-18
2022/05/16 04:59:59;;;;;;;1.77;1.67;;;;;;;;;;7333520;19;161882;-19
2022/05/16 05:02:30;;;;;;;2.50;2.30;;;;;;;;;;7332818;19;162443;-18
2022/05/16 05:05:03;;;;;;;1.92;1.83;;;;;;;;;;7334091;19;154330;-19
2022/05/16 05:07:34;;;;;;;1.90;1.80;;;;;;;;;;7330452;19;153708;-19
2022/05/16 05:15:54;;;;;;;3.15;2.38;;;;;;;;;;7327153;19;154354;-19
2022/05/16 05:18:25;;;;;;;1.90;1.80;;;;;;;;;;7329884;19;153822;-19
2022/05/16 05:20:56;;;;;;;3.67;2.53;;;;;;;;;;7329489;19;161879;-19
2022/05/16 05:23:28;;;;;;;3.92;2.38;;;;;;;;;;7331458;19;162317;-19
2022/05/16 05:25:59;;;;;;;3.38;2.50;;;;;;;;;;7329952;19;154090;-18
2022/05/16 05:28:33;;;;;;;3.30;2.50;;;;;;;;;;7329639;19;153573;-19
2022/05/16 05:31:05;;;;;;;3.35;2.60;;;;;;;;;;7329250;19;162098;-19
2022/05/16 05:33:36;;;;;;;4.10;3.00;;;;;;;;;;7329009;19;162569;-19
2022/05/16 05:36:08;;;;;;;5.25;2.88;;;;;;;;;;7329942;19;154039;-18
2022/05/16 05:38:40;;;;;;;5.53;3.30;;;;;;;;;;7327759;19;153969;-18
2022/05/16 05:41:13;;;;;;;3.77;3.00;;;;;;;;;;7327312;19;162279;-19
2022/05/16 05:43:46;;;;;;;4.65;2.60;;;;;;;;;;7325674;19;162432;-19
2022/05/16 05:46:18;;;;;;;2.70;2.50;;;;;;;;;;7327853;19;154910;-19
2022/05/16 05:48:50;;;;;;;4.38;2.97;;;;;;;;;;7325723;19;153716;-20
2022/05/16 05:51:21;;;;;;;3.85;2.70;;;;;;;;;;7326927;19;161862;-22
2022/05/16 05:53:53;;;;;;;5.85;3.28;;;;;;;;;;7328256;19;162472;-19
2022/05/16 05:56:24;;;;;;;3.22;2.55;;;;;;;;;;7327233;19;154143;-18
2022/05/16 05:58:59;;;;;;;5.30;2.83;;;;;;;;;;7328474;19;153686;-19
2022/05/16 06:01:31;;;;;;;4.43;3.05;;;;;;;;;;7328076;19;161999;-18
2022/05/16 06:04:03;;;;;;;7.82;2.65;;;;;;;;;;7326627;19;162576;-18
2022/05/16 06:06:34;;;;;;;2.78;2.30;;;;;;;;;;7328102;19;153894;-19
2022/05/16 06:09:05;;;;;;;4.63;2.83;;;;;;;;;;7327959;19;153881;-19
2022/05/16 06:11:37;;;;;;;3.30;2.60;;;;;;;;;;7327782;19;162028;-19
2022/05/16 06:14:12;;;;;;;2.47;2.35;;;;;;;;;;7327714;19;162564;-19
2022/05/16 06:16:43;;;;;;;3.17;2.40;;;;;;;;;;7326854;19;154112;-19
2022/05/16 06:19:15;;;;;;;3.28;2.40;;;;;;;;;;7327976;19;153567;-19
2022/05/16 06:21:47;;;;;;;3.93;2.70;;;;;;;;;;7331302;19;162077;-18
2022/05/16 06:27:02;;;;;;;2.30;2.10;;;;;;;;;;7334454;19;154243;-19
2022/05/16 06:29:36;;;;;;;3.20;2.20;;;;;;;;;;7334349;19;153651;-19
2022/05/16 06:32:08;;;;;;;5.90;2.28;;;;;;;;;;7334081;19;161934;-19
2022/05/16 06:34:40;;;;;;;4.95;2.50;;;;;;;;;;7334088;19;162595;-19
2022/05/16 06:37:11;;;;;;;2.55;2.10;;;;;;;;;;7334383;19;154144;-19
2022/05/16 06:39:42;;;;;;;2.55;2.35;;;;;;;;;;7334117;19;153694;-18
2022/05/16 06:42:14;;;;;;;2.55;2.10;;;;;;;;;;7332505;19;161869;-19
2022/05/16 06:44:48;;;;;;;2.40;2.30;;;;;;;;;;7331986;19;162531;-17
2022/05/16 06:47:19;;;;;;;4.63;2.58;;;;;;;;;;7332488;19;154085;-18
2022/05/16 06:49:50;;;;;;;4.00;2.85;;;;;;;;;;7333880;19;153628;-17
2022/05/16 06:52:22;;;;;;;3.72;2.40;;;;;;;;;;7333581;19;161754;-17
2022/05/16 06:54:55;;;;;;;3.33;2.67;;;;;;;;;;7332076;19;162422;-18
2022/05/16 06:57:26;;;;;;;3.20;2.50;;;;;;;;;;7333777;19;154140;-18
2022/05/16 07:00:00;;;;;;;3.67;2.40;;;;;;;;;;7333658;19;153533;-18
2022/05/16 07:02:32;;;;;;;2.60;2.40;;;;;;;;;;7333344;19;161859;-18
2022/05/16 07:05:05;;;;;;;3.30;2.60;;;;;;;;;;7331420;19;162538;-18
2022/05/16 07:07:37;;;;;;;4.10;2.58;;;;;;;;;;7333688;19;154066;-18
2022/05/16 07:10:09;;;;;;;3.10;2.40;;;;;;;;;;7333029;19;153548;-18
2022/05/16 07:12:41;;;;;;;3.40;2.10;;;;;;;;;;7333079;19;162009;-20
2022/05/16 07:15:16;;;;;;;2.35;2.13;;;;;;;;;;7331490;19;162579;-19
2022/05/16 07:17:48;;;;;;;4.35;2.78;;;;;;;;;;7337273;19;154172;-19
2022/05/16 07:20:20;;;;;;;3.15;2.17;;;;;;;;;;7333711;19;153725;-18
2022/05/16 07:22:51;;;;;;;2.97;2.47;;;;;;;;;;7334645;19;162117;-19
2022/05/16 07:25:25;;;;;;;2.72;2.15;;;;;;;;;;7331020;19;162318;-17
2022/05/16 07:27:57;;;;;;;2.45;2.25;;;;;;;;;;7332753;19;154153;-17
2022/05/16 07:30:33;;;;;;;2.53;2.30;;;;;;;;;;7336950;19;153787;-19
2022/05/16 07:33:05;;;;;;;4.10;2.38;;;;;;;;;;7332319;19;161851;-19
2022/05/16 07:35:38;;;;;;;3.15;1.95;;;;;;;;;;7332749;19;162346;-19
2022/05/16 07:38:10;;;;;;;2.85;2.40;;;;;;;;;;7334547;19;154126;-19
2022/05/16 07:40:41;;;;;;;7.43;2.58;;;;;;;;;;7335373;19;153839;-18
2022/05/16 07:43:12;;;;;;;4.35;2.28;;;;;;;;;;7335636;19;161824;-19
2022/05/16 07:45:47;;;;;;;9.07;2.85;;;;;;;;;;7330218;19;162531;-19
2022/05/16 07:48:18;;;;;;;4.47;2.60;;;;;;;;;;7329768;19;154221;-18
2022/05/16 07:50:50;;;;;;;3.92;2.35;;;;;;;;;;7332124;19;153559;-19
2022/05/16 07:53:21;;;;;;;4.57;2.97;;;;;;;;;;7331805;19;162807;-19
2022/05/16 07:55:55;;;;;;;4.43;2.80;;;;;;;;;;7331602;19;162601;-19
2022/05/16 07:58:28;;;;;;;4.05;2.40;;;;;;;;;;7331983;19;154088;-19
2022/05/16 08:01:02;;;;;;;5.15;3.20;;;;;;;;;;7331962;19;153493;-18
2022/05/16 08:03:34;;;;;;;5.45;2.67;;;;;;;;;;7331438;19;161840;-19
2022/05/16 08:06:06;;;;;;;4.43;2.80;;;;;;;;;;7329343;19;162391;-19
2022/05/16 08:11:21;;;;;;;3.55;3.00;;;;;;;;;;7335804;19;153639;-18
2022/05/16 08:13:52;;;;;;;5.72;4.18;;;;;;;;;;7331268;19;161782;-19
2022/05/16 08:16:26;;;;;;;3.00;2.58;;;;;;;;;;7331159;19;162411;-18
2022/05/16 08:18:57;;;;;;;6.05;3.22;;;;;;;;;;7330205;19;154428;-18
2022/05/16 08:21:29;;;;;;;4.38;2.85;;;;;;;;;;7330016;19;153757;-19
2022/05/16 08:24:01;;;;;;;3.75;2.70;;;;;;;;;;7331089;19;161825;-19
2022/05/16 08:26:33;;;;;;;5.20;2.83;;;;;;;;;;7328410;19;162374;-18
2022/05/16 08:29:04;;;;;;;3.22;2.65;;;;;;;;;;7331257;19;154378;-18
2022/05/16 08:31:39;;;;;;;5.15;3.22;;;;;;;;;;7330954;19;153802;-18
2022/05/16 08:34:10;;;;;;;5.15;3.20;;;;;;;;;;7329464;19;161802;-18
2022/05/16 08:42:11;;;;;;;4.82;3.30;;;;;;;;;;7330757;19;153528;-19
2022/05/16 08:44:48;;;;;;;4.65;3.25;;;;;;;;;;7328941;19;161987;-20
2022/05/16 08:47:44;;;;;;;3.65;2.72;;;;;;;;;;7328743;19;162359;-19
2022/05/16 08:50:19;;;;;;;6.75;3.10;;;;;;;;;;7329112;19;154355;-19
2022/05/16 08:52:54;;;;;;;3.75;2.85;;;;;;;;;;7330480;19;153575;-18
2022/05/16 08:55:32;;;;;;;4.57;2.80;;;;;;;;;;7329743;19;162056;-19
2022/05/16 08:58:09;;;;;;;3.53;2.55;;;;;;;;;;7329639;19;162331;-18
2022/05/16 09:00:47;;;;;;;2.90;2.65;;;;;;;;;;7329881;19;153964;-18
2022/05/16 09:03:27;;;;;;;6.68;3.20;;;;;;;;;;7328558;19;153521;-24
2022/05/16 09:06:02;;;;;;;6.10;2.65;;;;;;;;;;7328084;19;161948;-18
2022/05/16 09:08:49;;;;;;;3.55;3.10;;;;;;;;;;7329418;19;162338;-18
2022/05/16 09:11:29;;;;;;;5.70;2.53;;;;;;;;;;7329868;19;154129;-19
2022/05/16 09:14:06;;;;;;;5.95;2.95;;;;;;;;;;7329794;19;153671;-18
2022/05/16 09:16:47;;;;;;;4.75;2.55;;;;;;;;;;7329609;19;161969;-18
2022/05/16 09:19:48;;;;;;;3.83;2.80;;;;;;;;;;7331552;19;162652;-19
2022/05/16 09:22:27;;;;;;;6.40;3.08;;;;;;;;;;7328291;19;154409;-18
2022/05/16 09:25:05;;;;;;;2.83;2.38;;;;;;;;;;7328059;19;153632;-18
2022/05/16 09:30:26;;;;;;;2.72;2.47;;;;;;;;;;7329576;19;162576;-19
2022/05/16 09:33:02;;;;;;;3.63;3.00;;;;;;;;;;7329278;19;154067;-18
2022/05/16 09:35:47;;;;;;;3.63;3.00;;;;;;;;;;7329064;19;153539;-18
2022/05/16 09:38:19;;;;;;;5.70;3.05;;;;;;;;;;7328666;19;161744;-18
2022/05/16 09:41:04;;;;;;;4.15;2.42;;;;;;;;;;7328758;19;162533;-18
2022/05/16 09:43:40;;;;;;;5.28;2.92;;;;;;;;;;7328966;19;154181;-19
2022/05/16 09:46:26;;;;;;;5.28;2.80;;;;;;;;;;7327695;19;153769;-18
2022/05/16 09:49:04;;;;;;;3.35;2.80;;;;;;;;;;7328401;19;162010;-18
2022/05/16 09:51:46;;;;;;;3.15;2.88;;;;;;;;;;7328311;19;162507;-18
2022/05/16 09:54:30;;;;;;;4.15;2.72;;;;;;;;;;7328623;19;154292;-18
2022/05/16 09:57:15;;;;;;;5.60;3.30;;;;;;;;;;7333123;19;153522;-19
2022/05/16 09:59:50;;;;;;;3.47;2.95;;;;;;;;;;7332673;19;161780;-19
2022/05/16 10:02:26;;;;;;;2.55;2.35;;;;;;;;;;7338134;19;162374;-18
2022/05/16 10:05:00;;;;;;;3.40;2.80;;;;;;;;;;7335191;19;154213;-18
2022/05/16 10:07:45;;;;;;;6.22;2.75;;;;;;;;;;7333229;19;153637;-19
2022/05/16 10:10:19;;;;;;;3.60;2.33;;;;;;;;;;7334378;19;161793;-18
2022/05/16 10:12:53;;;;;;;3.95;2.63;;;;;;;;;;7334468;19;162649;-18
2022/05/16 10:15:24;;;;;;;4.07;2.95;;;;;;;;;;7335146;19;154199;-18
2022/05/16 10:17:58;;;;;;;4.30;2.80;;;;;;;;;;7334863;19;153560;-18
2022/05/16 10:20:33;;;;;;;6.63;2.88;;;;;;;;;;7334121;19;161800;-18
2022/05/16 10:23:12;;;;;;;4.55;2.75;;;;;;;;;;7334084;19;162207;-19
2022/05/16 10:25:47;;;;;;;5.15;2.67;;;;;;;;;;7334702;19;153891;-19
2022/05/16 10:28:24;;;;;;;5.45;2.95;;;;;;;;;;7334837;19;153724;-19
2022/05/16 10:33:43;;;;;;;5.10;2.67;;;;;;;;;;7334131;19;162556;-19
2022/05/16 10:36:25;;;;;;;4.88;2.50;;;;;;;;;;7334522;19;154777;-19
2022/05/16 10:39:06;;;;;;;5.85;2.60;;;;;;;;;;7334511;19;153752;-19
2022/05/16 10:41:44;;;;;;;3.90;2.92;;;;;;;;;;7333968;19;162152;-19
2022/05/16 10:44:25;;;;;;;2.95;2.47;;;;;;;;;;7333807;19;162404;-18
2022/05/16 10:47:04;;;;;;;3.88;2.67;;;;;;;;;;7332631;19;154133;-18
2022/05/16 10:49:41;;;;;;;2.72;2.53;;;;;;;;;;7335047;19;154129;-18
2022/05/16 10:52:32;;;;;;;2.88;2.50;;;;;;;;;;7332350;19;161740;-19
2022/05/16 10:55:06;;;;;;;4.88;2.42;;;;;;;;;;7333620;19;162449;-18
2022/05/16 10:58:04;;;;;;;6.13;2.63;;;;;;;;;;7337835;19;154059;-18
2022/05/16 11:00:38;;;;;;;2.53;2.15;;;;;;;;;;7333503;19;153572;-18
2022/05/16 11:03:44;;;;;;;3.28;2.35;;;;;;;;;;7334139;19;162586;-18
2022/05/16 11:06:31;;;;;;;4.15;2.33;;;;;;;;;;7329129;19;162503;-17
2022/05/16 11:09:08;;;;;;;3.75;2.10;;;;;;;;;;7335241;19;154131;-17
2022/05/16 11:11:50;;;;;;;4.65;2.15;;;;;;;;;;7335284;19;153356;-17
2022/05/16 11:14:28;;;;;;;4.53;2.00;;;;;;;;;;7335489;19;161906;-20
2022/05/16 11:17:06;;;;;;;3.97;2.45;;;;;;;;;;7334592;19;162506;-19
2022/05/16 11:19:48;;;;;;;4.45;2.35;;;;;;;;;;7333135;19;154824;-17
2022/05/16 11:22:25;;;;;;;5.10;2.35;;;;;;;;;;7334994;19;153578;-17
2022/05/16 11:25:04;;;;;;;4.35;2.42;;;;;;;;;;7332486;19;162284;-17
2022/05/16 11:27:46;;;;;;;2.42;2.22;;;;;;;;;;7334294;19;162377;-18
2022/05/16 11:30:24;;;;;;;4.43;2.25;;;;;;;;;;7334316;19;154889;-21
2022/05/16 11:33:06;;;;;;;4.05;2.40;;;;;;;;;;7332832;19;153984;-19
2022/05/16 11:35:42;;;;;;;3.10;2.20;;;;;;;;;;7336694;19;162076;-19
2022/05/16 11:38:40;;;;;;;5.53;2.45;;;;;;;;;;7334747;19;162331;-19
2022/05/16 11:41:20;;;;;;;5.13;1.98;;;;;;;;;;7335626;19;154290;-18
2022/05/16 11:44:01;;;;;;;2.95;1.88;;;;;;;;;;7335765;19;153663;-18
2022/05/16 11:46:42;;;;;;;2.05;1.77;;;;;;;;;;7335802;19;161878;-18
2022/05/16 11:49:35;;;;;;;2.77;2.00;;;;;;;;;;7333451;19;162505;-18
2022/05/16 11:52:37;;;;;;;3.78;2.25;;;;;;;;;;7333986;19;154227;-18
2022/05/16 12:01:03;;;;;;;3.40;2.30;;;;;;;;;;7336263;19;162474;-18
2022/05/16 12:03:38;;;;;;;2.63;2.03;;;;;;;;;;7331226;19;154229;-18
2022/05/16 12:06:28;;;;;;;2.25;1.85;;;;;;;;;;7334408;19;153700;-18
2022/05/16 12:09:19;;;;;;;5.10;2.13;;;;;;;;;;7330265;19;161846;-18
2022/05/16 12:11:55;;;;;;;6.47;1.75;;;;;;;;;;7331197;19;162532;-19
2022/05/16 12:14:33;;;;;;;3.13;2.08;;;;;;;;;;7334187;19;154127;-19
2022/05/16 12:17:27;;;;;;;3.17;1.67;;;;;;;;;;7330024;19;153540;-18
2022/05/16 12:19:59;;;;;;;4.70;1.50;;;;;;;;;;7330927;19;162081;-18
2022/05/16 12:22:47;;;;;;;3.42;1.88;;;;;;;;;;7333019;19;162688;-19
2022/05/16 12:25:33;;;;;;;6.13;1.90;;;;;;;;;;7329820;19;154112;-18
2022/05/16 12:28:29;;;;;;;3.15;1.83;;;;;;;;;;7331094;19;153789;-19
2022/05/16 12:31:04;;;;;;;2.80;1.60;;;;;;;;;;7332191;19;161821;-18
2022/05/16 12:33:53;;;;;;;4.35;1.83;;;;;;;;;;7329350;19;162186;-19
2022/05/16 12:36:26;;;;;;;3.53;1.35;;;;;;;;;;7332547;19;155464;-18
2022/05/16 12:39:01;;;;;;;1.73;1.40;;;;;;;;;;7330795;19;153487;-19
2022/05/16 12:41:51;;;;;;;2.85;1.27;;;;;;;;;;7331010;19;162212;-19
2022/05/16 12:44:38;;;;;;;4.38;1.42;;;;;;;;;;7331171;19;162625;-18
2022/05/16 12:47:41;;;;;;;3.83;1.58;;;;;;;;;;7332243;19;154169;-18
2022/05/16 12:50:55;;;;;;;2.47;1.38;;;;;;;;;;7330738;19;153606;-18
2022/05/16 12:54:07;;;;;;;3.13;1.53;;;;;;;;;;7327466;19;162171;-18
2022/05/16 12:56:49;;;;;;;2.50;1.30;;;;;;;;;;7328397;19;162756;-18
2022/05/16 12:59:47;;;;;;;2.83;1.33;;;;;;;;;;7332572;19;154260;-18
2022/05/16 13:02:26;;;;;;;1.17;1.08;;;;;;;;;;7330186;19;153635;-19
2022/05/16 13:05:08;;;;;;;1.95;1.02;;;;;;;;;;7331091;19;161907;-19
2022/05/16 13:07:52;;;;;;;2.85;1.30;;;;;;;;;;7331635;19;162743;-19
2022/05/16 13:10:34;;;;;;;1.92;1.30;;;;;;;;;;7333927;19;154129;-19
2022/05/16 13:13:22;;;;;;;2.60;1.37;;;;;;;;;;7332882;19;153513;-19
2022/05/16 13:15:59;;;;;;;2.20;1.20;;;;;;;;;;7329904;19;162381;-19
2022/05/16 13:18:33;;;;;;;1.40;1.30;;;;;;;;;;7329304;19;162753;-19
2022/05/16 13:21:13;;;;;;;2.08;1.25;;;;;;;;;;7329798;19;154140;-19
2022/05/16 13:23:45;;;;;;;2.00;1.10;;;;;;;;;;7332112;19;153559;-18
2022/05/16 13:29:26;;;;;;;1.35;1.25;;;;;;;;;;7326618;19;163867;-19
2022/05/16 13:31:59;;;;;;;16.05;7.22;;;;;;;;;;7331011;19;154058;-19
2022/05/16 13:34:31;;;;;;;;;;;;;;;;;;7331951;19;153572;-19
2022/05/16 13:37:03;;;;;;;84.20;37.63;;;;;;;;;;7325461;19;162247;-19
2022/05/16 13:39:38;;;;;;;128.50;57.03;;;;;;;;;;7328557;19;162380;-19
2022/05/16 13:42:09;;;;;;;176.95;73.50;;;;;;;;;;7329250;19;154039;-19
2022/05/16 13:44:47;;;;;;;202.37;85.53;;;;;;;;;;7330550;19;153618;-18
2022/05/16 13:47:23;;;;;;;189.68;87.35;;;;;;;;;;7327505;19;161815;-18
2022/05/16 13:49:55;;;;;;;209.50;91.63;;;;;;;;;;7324203;19;162605;-19
2022/05/16 13:52:30;;;;;;;209.20;92.95;;;;;;;;;;7328569;19;155095;-19
2022/05/16 13:55:05;;;;;;;180.15;82.53;;;;;;;;;;7328518;19;153486;-19
2022/05/16 13:57:36;;;;;;;162.88;72.18;;;;;;;;;;7328468;19;161838;-20
2022/05/16 14:00:25;;;;;;;176.82;78.90;;;;;;;;;;7328310;19;162365;-20
2022/05/16 14:03:00;;;;;;;146.15;68.20;;;;;;;;;;7328582;19;154065;-20
2022/05/16 14:05:40;;;;;;;137.02;63.78;;;;;;;;;;7328344;19;153644;-19
2022/05/16 14:08:23;;;;;;;136.00;60.63;;;;;;;;;;7327973;19;161775;-20
2022/05/16 14:10:55;;;;;;;122.07;57.23;;;;;;;;;;7328086;19;162405;-19
2022/05/16 14:13:29;;;;;;;110.23;54.57;;;;;;;;;;7328467;19;154342;-19
2022/05/16 14:16:08;;;;;;;114.43;53.63;;;;;;;;;;7328191;19;153719;-19
2022/05/16 14:18:45;;;;;;;106.95;49.67;;;;;;;;;;7327817;19;161879;-19
2022/05/16 14:21:20;;;;;;;102.40;48.42;;;;;;;;;;7327871;19;162406;-21
2022/05/16 14:24:02;;;;;;;97.40;43.53;;;;;;;;;;7326740;19;154342;-19
2022/05/16 14:26:48;;;;;;;88.28;40.78;;;;;;;;;;7328089;19;153740;-19
2022/05/16 14:29:24;;;;;;;77.82;38.00;;;;;;;;;;7326363;19;161901;-19
2022/05/16 14:32:06;;;;;;;75.05;37.08;;;;;;;;;;7327206;19;162544;-20
2022/05/16 14:34:40;;;;;;;66.88;31.17;;;;;;;;;;7327778;19;154307;-25
2022/05/16 14:37:26;;;;;;;39.22;20.20;;;;;;;;;;7327355;19;153809;-19
2022/05/16 14:40:11;;;;;;;30.40;16.08;;;;;;;;;;7327073;19;161790;-19
2022/05/16 14:42:46;;;;;;;47.53;22.38;;;;;;;;;;7330890;19;162573;-19
2022/05/16 14:46:42;;;;;;;28.45;12.27;;;;;;;;;;7333178;19;154104;-19
2022/05/16 14:48:22;;;;;;;20.92;10.60;;;;;;;;;;7331467;19;153790;-19
2022/05/16 14:50:53;;;;;;;21.58;10.60;;;;;;;;;;7330601;19;162589;-18
2022/05/16 14:53:27;;;;;;;19.10;8.98;;;;;;;;;;7333898;19;162535;-20
2022/05/16 14:55:59;;;;;;;19.88;10.35;;;;;;;;;;7333989;19;154138;-19
2022/05/16 14:58:31;;;;;;;12.63;5.95;;;;;;;;;;7333927;19;153878;-18
2022/05/16 15:06:32;;;;;;;9.90;4.45;;;;;;;;;;7333529;19;154212;-19
2022/05/16 15:09:05;;;;;;;14.43;6.23;;;;;;;;;;7333261;19;153609;-18
2022/05/16 15:11:41;;;;;;;9.40;5.15;;;;;;;;;;7336474;19;162064;-21
2022/05/16 15:14:13;;;;;;;5.07;2.72;;;;;;;;;;7331695;19;162396;-18
2022/05/16 15:16:45;;;;;;;8.07;4.50;;;;;;;;;;7333545;19;154149;-18
2022/05/16 15:19:19;;;;;;;4.68;2.40;;;;;;;;;;7334483;19;153755;-19
2022/05/16 15:21:55;;;;;;;6.50;3.22;;;;;;;;;;7331808;19;161852;-19
2022/05/16 15:24:29;;;;;;;7.25;4.18;;;;;;;;;;7332809;19;162451;-20
2022/05/16 15:27:18;;;;;;;5.00;3.25;;;;;;;;;;7332874;19;154065;-19
2022/05/16 15:29:49;;;;;;;4.50;2.13;;;;;;;;;;7332305;19;153520;-19
2022/05/16 15:32:22;;;;;;;5.85;3.13;;;;;;;;;;7332745;19;162030;-19
2022/05/16 15:34:56;;;;;;;4.65;2.05;;;;;;;;;;7332675;19;162509;-20
2022/05/16 15:37:27;;;;;;;3.53;1.60;;;;;;;;;;7331602;19;154149;-18
2022/05/16 15:39:59;;;;;;;2.90;1.50;;;;;;;;;;7332791;19;153458;-19
2022/05/16 15:42:30;;;;;;;3.05;1.77;;;;;;;;;;7332324;19;162024;-19
2022/05/16 15:45:01;;;;;;;3.30;1.73;;;;;;;;;;7331997;19;162519;-19
2022/05/16 15:47:37;;;;;;;4.68;2.17;;;;;;;;;;7332117;19;154103;-18
2022/05/16 15:50:16;;;;;;;2.50;1.52;;;;;;;;;;7331637;19;132456;-18
2022/05/16 15:52:48;;;;;;;1.92;1.63;;;;;;;;;;7330544;19;162294;-18
2022/05/16 15:55:22;;;;;;;1.77;1.67;;;;;;;;;;7331487;19;162597;-19
2022/05/16 15:57:53;;;;;;;3.80;1.83;;;;;;;;;;7332216;19;154270;-18
2022/05/16 16:00:26;;;;;;;2.08;1.40;;;;;;;;;;7332183;19;153378;-19
2022/05/16 16:03:01;;;;;;;1.65;1.40;;;;;;;;;;7330516;19;162019;-19
2022/05/16 16:11:03;;;;;;;2.55;1.60;;;;;;;;;;7329851;19;153650;-20